createdAt,value
2023-02-06T00:01:15.985Z,101066.25
2023-02-06T00:03:45.377Z,101061.38
2023-02-06T00:06:14.523Z,101060.09
2023-02-06T00:08:51.953Z,101064.88
2023-02-06T00:11:21.612Z,101054.28
2023-02-06T00:13:51.770Z,101051.66
2023-02-06T00:16:22.536Z,101043.78
2023-02-06T00:18:52.346Z,101059.94
2023-02-06T00:21:30.454Z,101062.44
2023-02-06T00:24:03.138Z,101070.31
2023-02-06T00:26:33.028Z,101049.69
2023-02-06T00:29:02.165Z,101059.22
2023-02-06T00:31:31.562Z,101071.59
2023-02-06T00:34:01.112Z,101071.72
2023-02-06T00:36:30.610Z,101079.28
2023-02-06T00:39:02.669Z,101077.25
2023-02-06T00:41:31.947Z,101076.47
2023-02-06T00:44:01.151Z,101084.63
2023-02-06T00:46:32.304Z,101069.53
2023-02-06T00:49:01.772Z,101071.41
2023-02-06T00:51:31.486Z,101075.97
2023-02-06T00:54:02.790Z,101068.84
2023-02-06T00:56:36.998Z,101062.78
2023-02-06T00:59:06.169Z,101082.91
2023-02-06T01:01:35.693Z,101080.22
2023-02-06T01:04:04.945Z,101060.19
2023-02-06T01:09:11.365Z,101074.50
2023-02-06T01:11:47.836Z,101036.16
2023-02-06T01:14:17.395Z,101078.63
2023-02-06T01:16:46.733Z,101076.31
2023-02-06T01:19:15.949Z,101067.59
2023-02-06T01:21:45.222Z,101072.25
2023-02-06T01:24:16.398Z,101067.09
2023-02-06T01:26:50.782Z,101075.19
2023-02-06T01:29:20.227Z,101082.16
2023-02-06T01:31:54.601Z,101075.22
2023-02-06T01:34:23.784Z,101081.44
2023-02-06T01:36:52.962Z,101077.66
2023-02-06T01:39:29.123Z,101086.00
2023-02-06T01:41:59.781Z,101079.41
2023-02-06T01:44:40.251Z,101095.19
2023-02-06T01:47:12.899Z,101082.13
2023-02-06T01:49:46.442Z,101062.84
2023-02-06T01:52:20.255Z,101078.88
2023-02-06T01:54:57.326Z,101086.41
2023-02-06T01:57:28.742Z,101090.78
2023-02-06T02:00:02.853Z,101084.63
2023-02-06T02:02:47.943Z,101060.31
2023-02-06T02:05:19.838Z,101089.84
2023-02-06T02:07:52.869Z,101088.09
2023-02-06T02:10:24.164Z,101082.84
2023-02-06T02:12:53.345Z,101090.38
2023-02-06T02:15:26.579Z,101088.53
2023-02-06T02:18:04.305Z,101053.97
2023-02-06T02:21:19.000Z,101086.69
2023-02-06T02:23:57.781Z,101062.53
2023-02-06T02:27:01.924Z,101097.00
2023-02-06T02:30:00.685Z,101092.81
2023-02-06T02:33:25.477Z,101063.53
2023-02-06T02:36:05.632Z,101108.03
2023-02-06T02:38:43.742Z,101085.84
2023-02-06T02:41:20.759Z,101106.44
2023-02-06T02:44:02.760Z,101115.16
2023-02-06T02:46:36.925Z,101108.63
2023-02-06T02:49:15.363Z,101102.00
2023-02-06T02:51:48.488Z,101086.50
2023-02-06T02:54:24.042Z,101115.34
2023-02-06T02:57:02.698Z,101071.81
2023-02-06T02:59:42.448Z,101115.47
2023-02-06T03:02:14.960Z,101109.06
2023-02-06T03:04:55.480Z,101111.78
2023-02-06T03:07:34.527Z,101093.22
2023-02-06T03:10:20.660Z,101098.63
2023-02-06T03:12:57.085Z,101116.09
2023-02-06T03:15:32.958Z,101121.66
2023-02-06T03:18:17.282Z,101121.38
2023-02-06T03:20:49.133Z,101068.53
2023-02-06T03:23:33.638Z,101119.84
2023-02-06T03:26:17.398Z,101124.38
2023-02-06T03:28:51.666Z,101121.13
2023-02-06T03:31:26.738Z,101111.69
2023-02-06T03:34:01.454Z,101127.88
2023-02-06T03:39:15.174Z,101126.53
2023-02-06T03:41:46.727Z,101133.75
2023-02-06T03:44:20.569Z,101129.13
2023-02-06T03:46:51.267Z,101099.72
2023-02-06T03:49:29.842Z,101106.28
2023-02-06T03:52:12.819Z,101090.84
2023-02-06T03:54:52.208Z,101129.22
2023-02-06T03:57:28.290Z,101114.81
2023-02-06T03:59:57.521Z,101133.16
2023-02-06T04:02:33.007Z,101131.25
2023-02-06T04:05:07.258Z,101120.28
2023-02-06T04:07:38.422Z,101112.72
2023-02-06T04:10:10.305Z,101126.59
2023-02-06T04:12:39.165Z,101126.41
2023-02-06T04:15:09.008Z,101101.41
2023-02-06T04:17:58.985Z,101132.03
2023-02-06T04:20:34.235Z,101123.56
2023-02-06T04:23:03.408Z,101122.31
2023-02-06T04:25:35.271Z,101123.13
2023-02-06T04:28:05.503Z,101130.91
2023-02-06T04:30:34.626Z,101114.06
2023-02-06T04:33:03.795Z,101133.94
2023-02-06T04:35:33.546Z,101140.34
2023-02-06T04:38:02.696Z,101137.13
2023-02-06T04:40:33.722Z,101143.00
2023-02-06T04:43:02.912Z,101097.38
2023-02-06T04:45:31.997Z,101137.34
2023-02-06T04:48:01.237Z,101135.72
2023-02-06T04:50:31.495Z,101133.06
2023-02-06T04:53:00.661Z,101116.69
2023-02-06T04:55:37.860Z,101138.44
2023-02-06T04:58:07.014Z,101125.69
2023-02-06T05:00:38.541Z,101146.00
2023-02-06T05:03:07.638Z,101154.47
2023-02-06T05:05:37.349Z,101154.69
2023-02-06T05:08:13.413Z,101157.50
2023-02-06T05:10:44.575Z,101147.88
2023-02-06T05:13:13.990Z,101147.44
2023-02-06T05:15:43.099Z,101151.63
2023-02-06T05:18:12.499Z,101154.50
2023-02-06T05:20:42.013Z,101143.75
2023-02-06T05:23:16.163Z,101150.75
2023-02-06T05:25:52.365Z,101149.44
2023-02-06T05:28:21.604Z,101151.22
2023-02-06T05:30:51.009Z,101146.84
2023-02-06T05:33:30.634Z,101128.63
2023-02-06T05:36:03.785Z,101160.44
2023-02-06T05:38:37.980Z,101144.75
2023-02-06T05:41:09.026Z,101156.06
2023-02-06T05:43:38.751Z,101158.00
2023-02-06T05:46:08.082Z,101135.38
2023-02-06T05:48:38.128Z,101157.78
2023-02-06T05:51:12.752Z,101154.91
2023-02-06T05:53:42.037Z,101152.16
2023-02-06T05:56:13.394Z,101160.13
2023-02-06T05:58:42.631Z,101146.00
2023-02-06T06:01:12.755Z,101164.06
2023-02-06T06:03:52.060Z,101162.13
2023-02-06T06:06:21.356Z,101161.81
2023-02-06T06:08:50.509Z,101159.28
2023-02-06T06:11:21.735Z,101152.38
2023-02-06T06:13:51.176Z,101163.16
2023-02-06T06:16:20.444Z,101169.59
2023-02-06T06:18:50.104Z,101172.38
2023-02-06T06:21:19.551Z,101162.69
2023-02-06T06:23:48.897Z,101150.03
2023-02-06T06:28:55.090Z,101171.50
2023-02-06T06:31:24.313Z,101168.97
2023-02-06T06:33:53.873Z,101171.91
2023-02-06T06:36:23.349Z,101171.16
2023-02-06T06:38:52.648Z,101167.03
2023-02-06T06:41:23.835Z,101180.50
2023-02-06T06:43:53.495Z,101171.59
2023-02-06T06:46:24.288Z,101172.66
2023-02-06T06:48:59.003Z,101169.03
2023-02-06T06:51:28.944Z,101186.81
2023-02-06T06:53:58.668Z,101183.34
2023-02-06T06:56:30.356Z,101172.91
2023-02-06T06:58:59.601Z,101174.53
2023-02-06T07:01:28.873Z,101185.22
2023-02-06T07:04:04.842Z,101194.19
2023-02-06T07:06:34.115Z,101194.31
2023-02-06T07:09:03.174Z,101193.75
2023-02-06T07:11:34.678Z,101194.97
2023-02-06T07:14:04.183Z,101149.63
2023-02-06T07:16:33.553Z,101189.38
2023-02-06T07:19:02.855Z,101187.16
2023-02-06T07:21:31.908Z,101189.31
2023-02-06T07:24:01.395Z,101174.69
2023-02-06T07:26:30.748Z,101189.81
2023-02-06T07:29:12.113Z,101192.50
2023-02-06T07:31:41.331Z,101144.25
2023-02-06T07:34:10.563Z,101180.94
2023-02-06T07:36:45.235Z,101179.09
2023-02-06T07:39:14.605Z,101179.75
2023-02-06T07:41:45.808Z,101181.41
2023-02-06T07:44:17.670Z,101189.16
2023-02-06T07:46:47.377Z,101171.47
2023-02-06T07:49:17.034Z,101189.34
2023-02-06T07:54:31.386Z,101194.72
2023-02-06T07:57:00.461Z,101192.44
2023-02-06T07:59:31.801Z,101190.78
2023-02-06T08:02:01.666Z,101193.56
2023-02-06T08:04:39.888Z,101185.69
2023-02-06T08:07:14.405Z,101200.53
2023-02-06T08:09:44.128Z,101196.00
2023-02-06T08:12:13.338Z,101177.53
2023-02-06T08:14:50.456Z,101197.69
2023-02-06T08:17:20.850Z,101197.31
2023-02-06T08:19:55.504Z,101194.38
2023-02-06T08:22:24.757Z,101184.13
2023-02-06T08:24:54.642Z,101202.72
2023-02-06T08:27:31.759Z,101187.28
2023-02-06T08:30:08.115Z,101193.53
2023-02-06T08:32:38.060Z,101195.69
2023-02-06T08:35:08.027Z,101174.06
2023-02-06T08:37:42.323Z,101194.34
2023-02-06T08:40:13.129Z,101197.66
2023-02-06T08:42:42.300Z,101180.13
2023-02-06T08:45:13.737Z,101198.38
2023-02-06T08:47:47.950Z,101194.47
2023-02-06T08:52:55.987Z,101190.16
2023-02-06T08:55:25.477Z,101186.44
2023-02-06T08:57:54.967Z,101176.72
2023-02-06T09:00:26.828Z,101189.16
2023-02-06T09:05:31.942Z,101183.94
2023-02-06T09:08:01.082Z,101189.19
2023-02-06T09:10:30.414Z,101194.09
2023-02-06T09:12:59.635Z,101161.13
2023-02-06T09:15:30.770Z,101170.88
2023-02-06T09:18:10.779Z,101177.09
2023-02-06T09:20:40.050Z,101176.13
2023-02-06T09:23:09.173Z,101191.44
2023-02-06T09:25:44.177Z,101196.69
2023-02-06T09:28:13.502Z,101199.53
2023-02-06T09:30:44.669Z,101187.63
2023-02-06T09:33:19.011Z,101190.34
2023-02-06T09:35:48.153Z,101194.16
2023-02-06T09:38:17.344Z,101183.19
2023-02-06T09:40:46.700Z,101176.41
2023-02-06T09:43:16.142Z,101196.78
2023-02-06T09:45:48.355Z,101191.91
2023-02-06T09:48:24.454Z,101198.00
2023-02-06T09:51:00.499Z,101178.22
2023-02-06T09:53:39.139Z,101188.44
2023-02-06T09:56:19.249Z,101184.31
2023-02-06T09:59:01.379Z,101170.75
2023-02-06T10:01:40.924Z,101189.38
2023-02-06T10:04:31.996Z,101181.53
2023-02-06T10:07:07.676Z,101174.44
2023-02-06T10:09:46.781Z,101193.22
2023-02-06T10:12:21.484Z,101193.69
2023-02-06T10:15:03.403Z,101196.13
2023-02-06T10:17:38.850Z,101195.22
2023-02-06T10:20:14.746Z,101196.69
2023-02-06T10:22:51.529Z,101198.38
2023-02-06T10:25:31.925Z,101199.91
2023-02-06T10:28:04.367Z,101144.75
2023-02-06T10:30:51.009Z,101197.97
2023-02-06T10:33:30.406Z,101167.06
2023-02-06T10:36:18.800Z,101205.97
2023-02-06T10:39:13.982Z,101181.78
2023-02-06T10:41:51.244Z,101205.94
2023-02-06T10:44:26.768Z,101157.31
2023-02-06T10:47:00.063Z,101184.53
2023-02-06T10:49:39.783Z,101182.50
2023-02-06T10:52:25.332Z,101181.66
2023-02-06T10:54:58.376Z,101188.00
2023-02-06T10:57:35.692Z,101174.16
2023-02-06T11:00:18.204Z,101187.34
2023-02-06T11:03:06.793Z,101197.19
2023-02-06T11:05:52.165Z,101198.28
2023-02-06T11:08:27.310Z,101193.97
2023-02-06T11:10:57.033Z,101191.34
2023-02-06T11:13:41.044Z,101175.75
2023-02-06T11:16:22.561Z,101189.78
2023-02-06T11:19:15.218Z,101192.72
2023-02-06T11:21:56.030Z,101183.66
2023-02-06T11:24:26.630Z,101191.44
2023-02-06T11:26:58.933Z,101174.28
2023-02-06T11:32:26.335Z,101180.72
2023-02-06T11:35:04.028Z,101183.91
2023-02-06T11:37:37.569Z,101130.88
2023-02-06T11:40:26.669Z,101193.38
2023-02-06T11:43:17.733Z,101189.03
2023-02-06T11:45:48.777Z,101184.97
2023-02-06T11:48:40.505Z,101186.69
2023-02-06T11:51:11.409Z,101181.34
2023-02-06T11:54:04.383Z,101187.22
2023-02-06T11:56:34.617Z,101192.97
2023-02-06T11:59:07.680Z,101159.69
2023-02-06T12:01:44.778Z,101181.13
2023-02-06T12:04:23.346Z,101186.44
2023-02-06T12:06:56.845Z,101180.94
2023-02-06T12:09:28.768Z,101145.50
2023-02-06T12:12:00.588Z,101187.44
2023-02-06T12:14:34.834Z,101174.78
2023-02-06T12:17:06.780Z,101170.31
2023-02-06T12:19:47.205Z,101180.44
2023-02-06T12:22:21.360Z,101186.47
2023-02-06T12:24:55.566Z,101181.41
2023-02-06T12:27:29.585Z,101171.28
2023-02-06T12:30:04.170Z,101183.06
2023-02-06T12:32:38.852Z,101158.78
2023-02-06T12:35:21.229Z,101193.06
2023-02-06T12:37:55.778Z,101190.50
2023-02-06T12:40:40.852Z,101182.31
2023-02-06T12:43:12.313Z,101166.50
2023-02-06T12:45:49.550Z,101159.91
2023-02-06T12:53:46.694Z,101177.28
2023-02-06T12:59:19.637Z,101184.47
2023-02-06T13:01:58.388Z,101160.38
2023-02-06T13:04:29.804Z,101182.16
2023-02-06T13:07:04.578Z,101156.44
2023-02-06T13:09:44.195Z,101183.56
2023-02-06T13:12:16.966Z,101173.63
2023-02-06T13:14:56.391Z,101181.22
2023-02-06T13:17:27.482Z,101172.81
2023-02-06T13:20:11.329Z,101188.53
2023-02-06T13:22:50.528Z,101183.56
2023-02-06T13:26:00.259Z,101184.22
2023-02-06T13:28:58.666Z,101191.16
2023-02-06T13:31:35.649Z,101188.72
2023-02-06T13:34:16.453Z,101187.63
2023-02-06T13:36:54.997Z,101192.47
2023-02-06T13:39:34.824Z,101201.59
2023-02-06T13:42:34.937Z,101201.59
2023-02-06T13:45:08.616Z,101207.09
2023-02-06T13:48:10.858Z,101218.09
2023-02-06T13:50:46.722Z,101207.13
2023-02-06T13:53:34.007Z,101206.34
2023-02-06T13:56:16.041Z,101203.19
2023-02-06T13:59:00.476Z,101191.53
2023-02-06T14:01:33.073Z,101207.09
2023-02-06T14:04:03.138Z,101213.53
2023-02-06T14:06:59.724Z,101206.03
2023-02-06T14:09:58.901Z,101220.06
2023-02-06T14:12:44.084Z,101219.97
2023-02-06T14:15:24.188Z,101220.81
2023-02-06T14:18:12.056Z,101189.47
2023-02-06T14:23:37.641Z,101219.38
2023-02-06T14:26:22.231Z,101228.03
2023-02-06T14:29:02.658Z,101219.94
2023-02-06T14:34:43.451Z,101223.06
2023-02-06T14:37:37.285Z,101209.19
2023-02-06T14:40:15.482Z,101217.69
2023-02-06T14:42:47.804Z,101230.50
2023-02-06T14:45:27.630Z,101229.84
2023-02-06T14:47:59.468Z,101228.66
2023-02-06T14:50:32.770Z,101234.75
2023-02-06T14:53:10.162Z,101239.19
2023-02-06T14:55:41.189Z,101241.72
2023-02-06T14:58:21.646Z,101209.72
2023-02-06T15:00:51.019Z,101240.34
2023-02-06T15:03:23.398Z,101218.88
2023-02-06T15:08:50.529Z,101234.91
2023-02-06T15:11:22.842Z,101237.53
2023-02-06T15:13:53.945Z,101250.38
2023-02-06T15:16:30.406Z,101250.50
2023-02-06T15:19:13.774Z,101246.97
2023-02-06T15:21:45.724Z,101226.63
2023-02-06T15:24:34.743Z,101254.31
2023-02-06T15:27:12.734Z,101209.63
2023-02-06T15:29:42.203Z,101249.25
2023-02-06T15:35:06.028Z,101238.91
2023-02-06T15:37:37.909Z,101256.63
2023-02-06T15:40:19.204Z,101260.13
2023-02-06T15:42:50.263Z,101248.06
2023-02-06T15:45:28.264Z,101264.97
2023-02-06T15:47:59.037Z,101255.41
2023-02-06T15:50:30.084Z,101260.53
2023-02-06T15:53:01.305Z,101259.09
2023-02-06T15:55:38.711Z,101254.66
2023-02-06T15:58:07.797Z,101255.06
2023-02-06T16:00:39.399Z,101252.75
2023-02-06T16:03:18.410Z,101239.06
2023-02-06T16:05:47.787Z,101262.09
2023-02-06T16:08:22.713Z,101260.34
2023-02-06T16:11:03.537Z,101265.28
2023-02-06T16:13:39.272Z,101264.88
2023-02-06T16:16:21.893Z,101255.22
2023-02-06T16:18:53.246Z,101224.53
2023-02-06T16:21:38.684Z,101256.25
2023-02-06T16:24:17.285Z,101251.50
2023-02-06T16:26:49.115Z,101248.78
2023-02-06T16:29:22.989Z,101256.53
2023-02-06T16:34:42.434Z,101258.28
2023-02-06T16:37:20.430Z,101253.94
2023-02-06T16:39:53.056Z,101238.91
2023-02-06T16:42:36.621Z,101262.31
2023-02-06T16:45:16.478Z,101246.66
2023-02-06T16:47:45.796Z,101266.53
2023-02-06T16:50:15.143Z,101267.16
2023-02-06T16:52:56.207Z,101263.47
2023-02-06T16:55:28.806Z,101250.63
2023-02-06T16:58:01.738Z,101275.31
2023-02-06T17:00:33.530Z,101267.31
2023-02-06T17:03:02.528Z,101271.81
2023-02-06T17:05:32.862Z,101274.50
2023-02-06T17:08:04.096Z,101278.34
2023-02-06T17:10:35.804Z,101280.22
2023-02-06T17:13:16.709Z,101277.13
2023-02-06T17:15:47.478Z,101267.34
2023-02-06T17:18:18.896Z,101285.47
2023-02-06T17:20:51.236Z,101284.19
2023-02-06T17:23:26.575Z,101287.06
2023-02-06T17:25:57.818Z,101287.63
2023-02-06T17:28:27.113Z,101286.75
2023-02-06T17:30:56.479Z,101300.47
2023-02-06T17:33:25.931Z,101288.63
2023-02-06T17:35:55.747Z,101306.66
2023-02-06T17:38:25.172Z,101313.44
2023-02-06T17:40:55.361Z,101257.22
2023-02-06T17:43:26.595Z,101317.44
2023-02-06T17:45:55.854Z,101329.06
2023-02-06T17:48:25.068Z,101282.41
2023-02-06T17:53:40.954Z,101340.06
2023-02-06T17:56:13.184Z,101346.91
2023-02-06T17:58:50.740Z,101316.56
2023-02-06T18:01:26.059Z,101339.41
2023-02-06T18:04:06.889Z,101345.25
2023-02-06T18:06:36.471Z,101357.59
2023-02-06T18:09:06.441Z,101357.59
2023-02-06T18:11:36.189Z,101367.72
2023-02-06T18:14:12.819Z,101337.59
2023-02-06T18:16:42.481Z,101372.78
2023-02-06T18:19:14.024Z,101369.25
2023-02-06T18:21:43.309Z,101370.25
2023-02-06T18:24:12.579Z,101373.66
2023-02-06T18:26:43.106Z,101381.78
2023-02-06T18:29:14.526Z,101386.84
2023-02-06T18:31:48.974Z,101383.97
2023-02-06T18:34:20.412Z,101380.53
2023-02-06T18:36:49.922Z,101387.16
2023-02-06T18:39:24.052Z,101381.34
2023-02-06T18:42:06.318Z,101385.28
2023-02-06T18:44:41.579Z,101385.84
2023-02-06T18:47:19.449Z,101400.34
2023-02-06T18:49:48.991Z,101398.81
2023-02-06T18:52:24.815Z,101385.06
2023-02-06T18:54:54.125Z,101379.03
2023-02-06T18:57:23.448Z,101405.94
2023-02-06T18:59:55.017Z,101406.13
2023-02-06T19:02:29.892Z,101400.22
2023-02-06T19:04:59.814Z,101388.34
2023-02-06T19:07:29.417Z,101419.81
2023-02-06T19:09:59.868Z,101422.66
2023-02-06T19:12:30.382Z,101431.22
2023-02-06T19:15:01.941Z,101427.72
2023-02-06T19:17:32.675Z,101417.56
2023-02-06T19:20:02.078Z,101410.19
2023-02-06T19:22:39.859Z,101435.94
2023-02-06T19:25:14.238Z,101431.19
2023-02-06T19:27:50.025Z,101426.00
2023-02-06T19:30:21.663Z,101435.44
2023-02-06T19:32:51.450Z,101430.88
2023-02-06T19:35:20.713Z,101437.75
2023-02-06T19:37:51.388Z,101439.56
2023-02-06T19:40:21.092Z,101444.03
2023-02-06T19:42:50.315Z,101445.75
2023-02-06T19:45:21.486Z,101413.81
2023-02-06T19:47:50.687Z,101444.72
2023-02-06T19:50:19.991Z,101453.72
2023-02-06T19:52:49.243Z,101447.78
2023-02-06T19:55:18.865Z,101452.97
2023-02-06T19:57:48.154Z,101448.28
2023-02-06T20:05:41.784Z,101450.69
2023-02-06T20:08:11.009Z,101455.84
2023-02-06T20:10:40.266Z,101459.81
2023-02-06T20:13:15.752Z,101447.88
2023-02-06T20:15:45.224Z,101465.38
2023-02-06T20:18:21.367Z,101461.78
2023-02-06T20:20:50.644Z,101429.19
2023-02-06T20:23:19.781Z,101468.94
2023-02-06T20:25:48.986Z,101478.16
2023-02-06T20:28:18.516Z,101473.88
2023-02-06T20:30:47.912Z,101485.16
2023-02-06T20:33:23.983Z,101472.38
2023-02-06T20:35:54.083Z,101484.72
2023-02-06T20:38:23.222Z,101471.22
2023-02-06T20:40:53.657Z,101484.06
2023-02-06T20:43:28.805Z,101481.56
2023-02-06T20:45:58.146Z,101471.44
2023-02-06T20:48:29.445Z,101440.00
2023-02-06T20:51:07.112Z,101473.56
2023-02-06T20:53:36.225Z,101474.09
2023-02-06T20:56:18.414Z,101473.31
2023-02-06T20:58:48.994Z,101479.47
2023-02-06T21:01:23.034Z,101463.22
2023-02-06T21:03:57.066Z,101479.41
2023-02-06T21:06:33.796Z,101479.53
2023-02-06T21:09:03.455Z,101487.56
2023-02-06T21:11:40.154Z,101488.22
2023-02-06T21:14:10.135Z,101486.69
2023-02-06T21:16:40.115Z,101487.69
2023-02-06T21:19:18.542Z,101461.72
2023-02-06T21:21:48.954Z,101485.28
2023-02-06T21:24:19.107Z,101486.13
2023-02-06T21:26:53.316Z,101441.50
2023-02-06T21:29:22.794Z,101488.59
2023-02-06T21:32:00.590Z,101487.47
2023-02-06T21:34:54.175Z,101479.78
2023-02-06T21:37:23.282Z,101495.72
2023-02-06T21:39:52.797Z,101466.88
2023-02-06T21:42:25.742Z,101475.06
2023-02-06T21:45:03.559Z,101501.25
2023-02-06T21:47:36.718Z,101502.91
2023-02-06T21:50:08.968Z,101504.75
2023-02-06T21:52:38.993Z,101508.28
2023-02-06T21:55:13.086Z,101500.00
2023-02-06T21:57:42.400Z,101503.06
2023-02-06T22:00:12.983Z,101505.59
2023-02-06T22:02:42.131Z,101508.47
2023-02-06T22:05:13.290Z,101520.69
2023-02-06T22:07:42.633Z,101510.19
2023-02-06T22:10:12.636Z,101508.06
2023-02-06T22:12:41.820Z,101507.09
2023-02-06T22:15:11.989Z,101499.25
2023-02-06T22:17:41.313Z,101520.63
2023-02-06T22:20:14.291Z,101510.28
2023-02-06T22:22:45.979Z,101516.63
2023-02-06T22:25:20.206Z,101520.69
2023-02-06T22:27:49.503Z,101518.28
2023-02-06T22:30:19.039Z,101511.56
2023-02-06T22:32:48.288Z,101524.44
2023-02-06T22:35:19.581Z,101525.19
2023-02-06T22:37:49.267Z,101523.69
2023-02-06T22:40:18.920Z,101463.31
2023-02-06T22:42:48.346Z,101523.28
2023-02-06T22:45:17.462Z,101530.97
2023-02-06T22:47:46.670Z,101518.41
2023-02-06T22:50:16.268Z,101531.31
2023-02-06T22:53:05.583Z,101507.16
2023-02-06T22:55:53.365Z,101537.31
2023-02-06T22:58:28.827Z,101538.09
2023-02-06T23:01:04.116Z,101539.72
2023-02-06T23:03:33.488Z,101548.84
2023-02-06T23:06:03.667Z,101554.00
2023-02-06T23:08:35.653Z,101555.22
2023-02-06T23:11:05.200Z,101543.38
2023-02-06T23:13:34.688Z,101551.19
2023-02-06T23:16:04.283Z,101548.66
2023-02-06T23:18:33.636Z,101571.00
2023-02-06T23:21:10.699Z,101563.13
2023-02-06T23:23:47.194Z,101560.22
2023-02-06T23:28:52.935Z,101552.25
2023-02-06T23:31:22.122Z,101539.56
2023-02-06T23:33:56.888Z,101561.16
2023-02-06T23:36:32.433Z,101547.47
2023-02-06T23:39:06.935Z,101560.94
2023-02-06T23:41:36.300Z,101567.72
2023-02-06T23:44:08.594Z,101565.09
2023-02-06T23:46:49.388Z,101555.41
2023-02-06T23:49:19.795Z,101546.34
2023-02-06T23:51:48.869Z,101564.09
2023-02-06T23:54:22.154Z,101565.66
2023-02-06T23:56:51.359Z,101577.38
2023-02-06T23:59:21.423Z,101560.78
